sensor_id;sensor_type;location;lat;lon;timestamp;P1;durP1;ratioP1;P2;durP2;ratioP2
59263;SDS011;45030;42.720;23.344;2022-09-01T00:02:00;10.95;;;7.45;;
59263;SDS011;45030;42.720;23.344;2022-09-01T00:04:32;15.32;;;7.78;;
59263;SDS011;45030;42.720;23.344;2022-09-01T00:06:58;12.40;;;7.28;;
59263;SDS011;45030;42.720;23.344;2022-09-01T00:09:24;12.23;;;7.55;;
59263;SDS011;45030;42.720;23.344;2022-09-01T00:11:50;12.60;;;7.25;;
59263;SDS011;45030;42.720;23.344;2022-09-01T00:14:21;11.43;;;7.32;;
59263;SDS011;45030;42.720;23.344;2022-09-01T00:16:46;12.25;;;7.47;;
59263;SDS011;45030;42.720;23.344;2022-09-01T00:19:12;12.93;;;7.03;;
59263;SDS011;45030;42.720;23.344;2022-09-01T00:21:39;13.43;;;7.55;;
59263;SDS011;45030;42.720;23.344;2022-09-01T00:24:05;11.18;;;6.68;;
59263;SDS011;45030;42.720;23.344;2022-09-01T00:26:30;13.48;;;7.70;;
59263;SDS011;45030;42.720;23.344;2022-09-01T00:28:55;10.60;;;7.15;;
59263;SDS011;45030;42.720;23.344;2022-09-01T00:31:21;12.65;;;7.85;;
59263;SDS011;45030;42.720;23.344;2022-09-01T00:33:47;10.35;;;7.63;;
59263;SDS011;45030;42.720;23.344;2022-09-01T00:36:13;11.25;;;6.85;;
59263;SDS011;45030;42.720;23.344;2022-09-01T00:38:38;11.18;;;7.40;;
59263;SDS011;45030;42.720;23.344;2022-09-01T00:41:04;12.32;;;7.63;;
59263;SDS011;45030;42.720;23.344;2022-09-01T00:46:02;19.75;;;10.50;;
59263;SDS011;45030;42.720;23.344;2022-09-01T00:48:27;29.13;;;16.80;;
59263;SDS011;45030;42.720;23.344;2022-09-01T00:50:52;27.25;;;14.65;;
59263;SDS011;45030;42.720;23.344;2022-09-01T00:53:18;17.08;;;11.10;;
59263;SDS011;45030;42.720;23.344;2022-09-01T00:55:43;20.45;;;11.45;;
59263;SDS011;45030;42.720;23.344;2022-09-01T00:58:08;14.68;;;8.93;;
59263;SDS011;45030;42.720;23.344;2022-09-01T01:00:35;13.93;;;7.97;;
59263;SDS011;45030;42.720;23.344;2022-09-01T01:03:11;14.52;;;8.95;;
59263;SDS011;45030;42.720;23.344;2022-09-01T01:05:38;14.23;;;7.70;;
59263;SDS011;45030;42.720;23.344;2022-09-01T01:08:04;13.57;;;7.85;;
59263;SDS011;45030;42.720;23.344;2022-09-01T01:10:32;16.23;;;8.77;;
59263;SDS011;45030;42.720;23.344;2022-09-01T01:12:59;14.88;;;9.70;;
59263;SDS011;45030;42.720;23.344;2022-09-01T01:15:28;16.02;;;9.65;;
59263;SDS011;45030;42.720;23.344;2022-09-01T01:17:54;13.65;;;8.70;;
59263;SDS011;45030;42.720;23.344;2022-09-01T01:20:19;18.00;;;9.00;;
59263;SDS011;45030;42.720;23.344;2022-09-01T01:28:07;17.73;;;9.60;;
59263;SDS011;45030;42.720;23.344;2022-09-01T01:30:33;18.73;;;10.10;;
59263;SDS011;45030;42.720;23.344;2022-09-01T01:33:01;14.98;;;9.60;;
59263;SDS011;45030;42.720;23.344;2022-09-01T01:35:26;21.70;;;11.45;;
59263;SDS011;45030;42.720;23.344;2022-09-01T01:37:51;17.83;;;9.73;;
59263;SDS011;45030;42.720;23.344;2022-09-01T01:40:19;17.10;;;10.48;;
59263;SDS011;45030;42.720;23.344;2022-09-01T01:42:47;19.45;;;9.68;;
59263;SDS011;45030;42.720;23.344;2022-09-01T01:45:13;18.20;;;10.43;;
59263;SDS011;45030;42.720;23.344;2022-09-01T01:47:41;17.75;;;9.40;;
59263;SDS011;45030;42.720;23.344;2022-09-01T01:50:08;21.33;;;10.88;;
59263;SDS011;45030;42.720;23.344;2022-09-01T01:52:34;20.52;;;11.52;;
59263;SDS011;45030;42.720;23.344;2022-09-01T01:55:00;18.05;;;11.02;;
59263;SDS011;45030;42.720;23.344;2022-09-01T01:57:25;21.48;;;10.82;;
59263;SDS011;45030;42.720;23.344;2022-09-01T01:59:56;17.33;;;10.55;;
59263;SDS011;45030;42.720;23.344;2022-09-01T02:02:21;21.67;;;11.32;;
59263;SDS011;45030;42.720;23.344;2022-09-01T02:04:46;22.58;;;12.05;;
59263;SDS011;45030;42.720;23.344;2022-09-01T02:07:11;18.65;;;10.38;;
59263;SDS011;45030;42.720;23.344;2022-09-01T02:09:37;20.45;;;10.90;;
59263;SDS011;45030;42.720;23.344;2022-09-01T02:12:04;18.20;;;10.95;;
59263;SDS011;45030;42.720;23.344;2022-09-01T02:14:31;17.58;;;10.00;;
59263;SDS011;45030;42.720;23.344;2022-09-01T02:16:57;21.00;;;11.10;;
59263;SDS011;45030;42.720;23.344;2022-09-01T02:19:22;19.77;;;11.55;;
59263;SDS011;45030;42.720;23.344;2022-09-01T02:21:47;22.65;;;11.32;;
59263;SDS011;45030;42.720;23.344;2022-09-01T02:24:18;18.33;;;11.35;;
59263;SDS011;45030;42.720;23.344;2022-09-01T02:26:44;22.55;;;12.77;;
59263;SDS011;45030;42.720;23.344;2022-09-01T02:29:13;21.52;;;11.93;;
59263;SDS011;45030;42.720;23.344;2022-09-01T02:31:43;26.67;;;13.30;;
59263;SDS011;45030;42.720;23.344;2022-09-01T02:34:09;27.13;;;13.05;;
59263;SDS011;45030;42.720;23.344;2022-09-01T02:36:38;25.92;;;12.90;;
59263;SDS011;45030;42.720;23.344;2022-09-01T02:39:08;24.80;;;13.93;;
59263;SDS011;45030;42.720;23.344;2022-09-01T02:41:33;32.17;;;15.25;;
59263;SDS011;45030;42.720;23.344;2022-09-01T02:43:58;30.42;;;14.93;;
59263;SDS011;45030;42.720;23.344;2022-09-01T02:46:26;22.33;;;12.95;;
59263;SDS011;45030;42.720;23.344;2022-09-01T02:48:53;27.63;;;14.15;;
59263;SDS011;45030;42.720;23.344;2022-09-01T02:51:20;26.02;;;13.73;;
59263;SDS011;45030;42.720;23.344;2022-09-01T02:53:46;31.27;;;16.45;;
59263;SDS011;45030;42.720;23.344;2022-09-01T02:56:17;31.30;;;14.55;;
59263;SDS011;45030;42.720;23.344;2022-09-01T02:58:43;32.85;;;14.40;;
59263;SDS011;45030;42.720;23.344;2022-09-01T03:03:37;38.22;;;15.88;;
59263;SDS011;45030;42.720;23.344;2022-09-01T03:06:02;30.60;;;16.23;;
59263;SDS011;45030;42.720;23.344;2022-09-01T03:08:33;30.75;;;15.05;;
59263;SDS011;45030;42.720;23.344;2022-09-01T03:11:00;32.50;;;15.55;;
59263;SDS011;45030;42.720;23.344;2022-09-01T03:13:26;33.25;;;15.35;;
59263;SDS011;45030;42.720;23.344;2022-09-01T03:15:53;29.75;;;15.02;;
59263;SDS011;45030;42.720;23.344;2022-09-01T03:18:18;33.55;;;16.95;;
59263;SDS011;45030;42.720;23.344;2022-09-01T03:20:43;33.83;;;17.48;;
59263;SDS011;45030;42.720;23.344;2022-09-01T03:23:11;39.10;;;17.27;;
59263;SDS011;45030;42.720;23.344;2022-09-01T03:25:38;29.63;;;15.93;;
59263;SDS011;45030;42.720;23.344;2022-09-01T03:28:04;33.95;;;17.23;;
59263;SDS011;45030;42.720;23.344;2022-09-01T03:30:30;28.30;;;13.63;;
59263;SDS011;45030;42.720;23.344;2022-09-01T03:32:56;31.52;;;13.73;;
59263;SDS011;45030;42.720;23.344;2022-09-01T03:35:22;25.90;;;12.75;;
59263;SDS011;45030;42.720;23.344;2022-09-01T03:37:49;23.00;;;12.00;;
59263;SDS011;45030;42.720;23.344;2022-09-01T03:40:15;27.08;;;14.20;;
59263;SDS011;45030;42.720;23.344;2022-09-01T03:42:42;24.42;;;11.00;;
59263;SDS011;45030;42.720;23.344;2022-09-01T03:45:07;20.80;;;11.07;;
59263;SDS011;45030;42.720;23.344;2022-09-01T03:47:37;18.13;;;10.73;;
59263;SDS011;45030;42.720;23.344;2022-09-01T03:50:04;21.55;;;11.07;;
59263;SDS011;45030;42.720;23.344;2022-09-01T03:52:30;24.35;;;11.68;;
59263;SDS011;45030;42.720;23.344;2022-09-01T03:54:57;30.83;;;14.25;;
59263;SDS011;45030;42.720;23.344;2022-09-01T03:57:23;21.75;;;12.27;;
59263;SDS011;45030;42.720;23.344;2022-09-01T03:59:50;23.85;;;12.48;;
59263;SDS011;45030;42.720;23.344;2022-09-01T04:02:16;28.52;;;12.73;;
59263;SDS011;45030;42.720;23.344;2022-09-01T04:04:41;27.80;;;13.05;;
59263;SDS011;45030;42.720;23.344;2022-09-01T04:07:06;26.58;;;12.00;;
59263;SDS011;45030;42.720;23.344;2022-09-01T04:09:32;24.52;;;13.10;;
59263;SDS011;45030;42.720;23.344;2022-09-01T04:11:59;33.47;;;15.18;;
59263;SDS011;45030;42.720;23.344;2022-09-01T04:14:24;29.45;;;14.43;;
59263;SDS011;45030;42.720;23.344;2022-09-01T04:16:51;23.40;;;13.13;;
59263;SDS011;45030;42.720;23.344;2022-09-01T04:19:36;28.42;;;13.80;;
59263;SDS011;45030;42.720;23.344;2022-09-01T04:22:03;35.95;;;16.15;;
59263;SDS011;45030;42.720;23.344;2022-09-01T04:24:30;47.67;;;20.58;;
59263;SDS011;45030;42.720;23.344;2022-09-01T04:26:56;29.02;;;16.00;;
59263;SDS011;45030;42.720;23.344;2022-09-01T04:29:22;32.92;;;15.45;;
59263;SDS011;45030;42.720;23.344;2022-09-01T04:31:51;27.33;;;15.15;;
59263;SDS011;45030;42.720;23.344;2022-09-01T04:34:17;35.70;;;18.17;;
59263;SDS011;45030;42.720;23.344;2022-09-01T04:36:43;35.72;;;18.13;;
59263;SDS011;45030;42.720;23.344;2022-09-01T04:39:09;48.47;;;22.38;;
59263;SDS011;45030;42.720;23.344;2022-09-01T04:41:38;41.40;;;19.23;;
59263;SDS011;45030;42.720;23.344;2022-09-01T04:44:04;40.90;;;21.52;;
59263;SDS011;45030;42.720;23.344;2022-09-01T04:46:30;42.25;;;20.60;;
59263;SDS011;45030;42.720;23.344;2022-09-01T04:48:57;39.63;;;17.70;;
59263;SDS011;45030;42.720;23.344;2022-09-01T04:51:24;33.92;;;15.65;;
59263;SDS011;45030;42.720;23.344;2022-09-01T04:53:52;28.27;;;14.25;;
59263;SDS011;45030;42.720;23.344;2022-09-01T04:56:18;26.23;;;13.48;;
59263;SDS011;45030;42.720;23.344;2022-09-01T04:58:45;23.40;;;12.18;;
59263;SDS011;45030;42.720;23.344;2022-09-01T05:01:21;24.27;;;12.60;;
59263;SDS011;45030;42.720;23.344;2022-09-01T05:03:47;24.60;;;12.80;;
59263;SDS011;45030;42.720;23.344;2022-09-01T05:06:25;27.33;;;13.05;;
59263;SDS011;45030;42.720;23.344;2022-09-01T05:08:51;29.42;;;13.48;;
59263;SDS011;45030;42.720;23.344;2022-09-01T05:11:17;24.33;;;12.30;;
59263;SDS011;45030;42.720;23.344;2022-09-01T05:13:46;23.95;;;11.88;;
59263;SDS011;45030;42.720;23.344;2022-09-01T05:16:13;23.67;;;12.60;;
59263;SDS011;45030;42.720;23.344;2022-09-01T05:18:40;29.40;;;13.50;;
59263;SDS011;45030;42.720;23.344;2022-09-01T05:21:06;25.90;;;14.27;;
59263;SDS011;45030;42.720;23.344;2022-09-01T05:23:33;24.77;;;12.65;;
59263;SDS011;45030;42.720;23.344;2022-09-01T05:26:00;31.30;;;15.05;;
59263;SDS011;45030;42.720;23.344;2022-09-01T05:28:28;25.23;;;13.90;;
59263;SDS011;45030;42.720;23.344;2022-09-01T05:30:53;30.30;;;14.48;;
59263;SDS011;45030;42.720;23.344;2022-09-01T05:33:19;29.58;;;14.32;;
59263;SDS011;45030;42.720;23.344;2022-09-01T05:35:55;27.85;;;14.60;;
59263;SDS011;45030;42.720;23.344;2022-09-01T05:38:21;24.95;;;12.57;;
59263;SDS011;45030;42.720;23.344;2022-09-01T05:40:54;27.40;;;12.82;;
59263;SDS011;45030;42.720;23.344;2022-09-01T05:43:19;35.55;;;14.88;;
59263;SDS011;45030;42.720;23.344;2022-09-01T05:45:45;26.67;;;13.07;;
59263;SDS011;45030;42.720;23.344;2022-09-01T05:48:11;26.55;;;13.65;;
59263;SDS011;45030;42.720;23.344;2022-09-01T05:50:39;27.75;;;14.23;;
59263;SDS011;45030;42.720;23.344;2022-09-01T05:53:07;23.52;;;12.98;;
59263;SDS011;45030;42.720;23.344;2022-09-01T05:55:35;31.17;;;14.75;;
59263;SDS011;45030;42.720;23.344;2022-09-01T05:58:01;28.45;;;14.45;;
59263;SDS011;45030;42.720;23.344;2022-09-01T06:00:27;26.83;;;14.68;;
59263;SDS011;45030;42.720;23.344;2022-09-01T06:02:58;26.67;;;13.80;;
59263;SDS011;45030;42.720;23.344;2022-09-01T06:05:25;26.98;;;15.18;;
59263;SDS011;45030;42.720;23.344;2022-09-01T06:07:50;25.77;;;14.20;;
59263;SDS011;45030;42.720;23.344;2022-09-01T06:10:16;25.60;;;13.77;;
59263;SDS011;45030;42.720;23.344;2022-09-01T06:12:41;24.95;;;13.05;;
59263;SDS011;45030;42.720;23.344;2022-09-01T06:15:09;30.17;;;14.93;;
59263;SDS011;45030;42.720;23.344;2022-09-01T06:17:39;27.73;;;13.73;;
59263;SDS011;45030;42.720;23.344;2022-09-01T06:20:05;28.63;;;13.32;;
59263;SDS011;45030;42.720;23.344;2022-09-01T06:22:34;27.73;;;13.07;;
59263;SDS011;45030;42.720;23.344;2022-09-01T06:25:00;32.08;;;14.63;;
59263;SDS011;45030;42.720;23.344;2022-09-01T06:27:25;29.15;;;14.68;;
59263;SDS011;45030;42.720;23.344;2022-09-01T06:29:51;31.23;;;15.13;;
59263;SDS011;45030;42.720;23.344;2022-09-01T06:32:22;28.70;;;15.43;;
59263;SDS011;45030;42.720;23.344;2022-09-01T06:34:49;30.15;;;14.00;;
59263;SDS011;45030;42.720;23.344;2022-09-01T06:37:15;29.90;;;15.30;;
59263;SDS011;45030;42.720;23.344;2022-09-01T06:39:46;26.65;;;15.32;;
59263;SDS011;45030;42.720;23.344;2022-09-01T06:42:11;28.00;;;14.18;;
59263;SDS011;45030;42.720;23.344;2022-09-01T06:44:39;27.33;;;14.25;;
59263;SDS011;45030;42.720;23.344;2022-09-01T06:47:05;25.80;;;13.70;;
59263;SDS011;45030;42.720;23.344;2022-09-01T06:49:31;25.13;;;12.90;;
59263;SDS011;45030;42.720;23.344;2022-09-01T06:52:00;27.63;;;14.05;;
59263;SDS011;45030;42.720;23.344;2022-09-01T06:54:27;28.42;;;13.48;;
59263;SDS011;45030;42.720;23.344;2022-09-01T06:56:53;30.85;;;14.43;;
59263;SDS011;45030;42.720;23.344;2022-09-01T06:59:19;24.25;;;11.80;;
59263;SDS011;45030;42.720;23.344;2022-09-01T07:01:44;25.50;;;12.35;;
59263;SDS011;45030;42.720;23.344;2022-09-01T07:04:11;26.23;;;14.57;;
59263;SDS011;45030;42.720;23.344;2022-09-01T07:06:38;24.60;;;12.98;;
59263;SDS011;45030;42.720;23.344;2022-09-01T07:09:03;23.73;;;13.85;;
59263;SDS011;45030;42.720;23.344;2022-09-01T07:11:30;23.25;;;13.25;;
59263;SDS011;45030;42.720;23.344;2022-09-01T07:13:58;23.40;;;13.68;;
59263;SDS011;45030;42.720;23.344;2022-09-01T07:16:26;22.98;;;12.77;;
59263;SDS011;45030;42.720;23.344;2022-09-01T07:18:52;25.75;;;13.68;;
59263;SDS011;45030;42.720;23.344;2022-09-01T07:21:20;20.20;;;12.13;;
59263;SDS011;45030;42.720;23.344;2022-09-01T07:23:45;23.88;;;13.52;;
59263;SDS011;45030;42.720;23.344;2022-09-01T07:26:11;18.88;;;11.63;;
59263;SDS011;45030;42.720;23.344;2022-09-01T07:28:38;20.15;;;12.80;;
59263;SDS011;45030;42.720;23.344;2022-09-01T07:31:04;23.02;;;13.27;;
59263;SDS011;45030;42.720;23.344;2022-09-01T07:33:30;19.92;;;12.73;;
59263;SDS011;45030;42.720;23.344;2022-09-01T07:35:55;20.70;;;12.57;;
59263;SDS011;45030;42.720;23.344;2022-09-01T07:38:22;26.40;;;14.07;;
59263;SDS011;45030;42.720;23.344;2022-09-01T07:40:47;19.25;;;11.38;;
59263;SDS011;45030;42.720;23.344;2022-09-01T07:43:23;20.98;;;12.88;;
59263;SDS011;45030;42.720;23.344;2022-09-01T07:45:50;21.98;;;12.88;;
59263;SDS011;45030;42.720;23.344;2022-09-01T07:48:18;22.73;;;13.38;;
59263;SDS011;45030;42.720;23.344;2022-09-01T07:50:44;21.67;;;12.15;;
59263;SDS011;45030;42.720;23.344;2022-09-01T07:53:11;20.83;;;13.10;;
59263;SDS011;45030;42.720;23.344;2022-09-01T07:55:39;19.20;;;11.82;;
59263;SDS011;45030;42.720;23.344;2022-09-01T07:58:05;21.73;;;13.25;;
59263;SDS011;45030;42.720;23.344;2022-09-01T08:00:30;18.38;;;12.93;;
59263;SDS011;45030;42.720;23.344;2022-09-01T08:02:58;20.55;;;12.40;;
59263;SDS011;45030;42.720;23.344;2022-09-01T08:05:24;16.10;;;12.00;;
59263;SDS011;45030;42.720;23.344;2022-09-01T08:07:51;16.65;;;11.02;;
59263;SDS011;45030;42.720;23.344;2022-09-01T08:10:16;16.23;;;12.25;;
59263;SDS011;45030;42.720;23.344;2022-09-01T08:12:41;16.85;;;12.23;;
59263;SDS011;45030;42.720;23.344;2022-09-01T08:15:09;18.92;;;11.90;;
59263;SDS011;45030;42.720;23.344;2022-09-01T08:17:36;15.73;;;11.40;;
59263;SDS011;45030;42.720;23.344;2022-09-01T08:20:02;18.38;;;11.55;;
59263;SDS011;45030;42.720;23.344;2022-09-01T08:22:27;16.13;;;12.15;;
59263;SDS011;45030;42.720;23.344;2022-09-01T08:24:53;17.75;;;11.75;;
59263;SDS011;45030;42.720;23.344;2022-09-01T08:27:18;17.30;;;11.30;;
59263;SDS011;45030;42.720;23.344;2022-09-01T08:29:44;15.88;;;11.73;;
59263;SDS011;45030;42.720;23.344;2022-09-01T08:32:09;16.85;;;11.73;;
59263;SDS011;45030;42.720;23.344;2022-09-01T08:34:35;16.42;;;11.57;;
59263;SDS011;45030;42.720;23.344;2022-09-01T08:37:01;17.33;;;11.13;;
59263;SDS011;45030;42.720;23.344;2022-09-01T08:39:26;15.15;;;10.65;;
59263;SDS011;45030;42.720;23.344;2022-09-01T08:46:53;9.65;;;7.63;;
59263;SDS011;45030;42.720;23.344;2022-09-01T08:49:21;14.68;;;8.10;;
59263;SDS011;45030;42.720;23.344;2022-09-01T08:51:49;11.35;;;8.07;;
59263;SDS011;45030;42.720;23.344;2022-09-01T08:56:49;11.70;;;7.95;;
59263;SDS011;45030;42.720;23.344;2022-09-01T08:59:17;8.85;;;6.80;;
59263;SDS011;45030;42.720;23.344;2022-09-01T09:01:47;10.40;;;6.38;;
59263;SDS011;45030;42.720;23.344;2022-09-01T09:09:07;9.73;;;6.30;;
59263;SDS011;45030;42.720;23.344;2022-09-01T09:11:50;8.25;;;5.35;;
59263;SDS011;45030;42.720;23.344;2022-09-01T09:16:44;10.27;;;6.17;;
59263;SDS011;45030;42.720;23.344;2022-09-01T09:21:46;7.40;;;5.55;;
59263;SDS011;45030;42.720;23.344;2022-09-01T09:26:37;8.33;;;6.00;;
59263;SDS011;45030;42.720;23.344;2022-09-01T09:29:02;8.20;;;5.22;;
59263;SDS011;45030;42.720;23.344;2022-09-01T09:33:53;6.93;;;4.67;;
59263;SDS011;45030;42.720;23.344;2022-09-01T09:36:22;6.78;;;4.25;;
59263;SDS011;45030;42.720;23.344;2022-09-01T09:42:06;7.13;;;4.72;;
59263;SDS011;45030;42.720;23.344;2022-09-01T09:44:33;6.65;;;4.57;;
59263;SDS011;45030;42.720;23.344;2022-09-01T09:47:03;8.55;;;4.97;;
59263;SDS011;45030;42.720;23.344;2022-09-01T09:49:29;6.55;;;4.47;;
59263;SDS011;45030;42.720;23.344;2022-09-01T09:54:34;6.22;;;4.55;;
59263;SDS011;45030;42.720;23.344;2022-09-01T09:57:05;6.22;;;4.60;;
59263;SDS011;45030;42.720;23.344;2022-09-01T10:01:59;7.38;;;4.43;;
59263;SDS011;45030;42.720;23.344;2022-09-01T10:04:32;5.45;;;4.03;;
59263;SDS011;45030;42.720;23.344;2022-09-01T10:06:58;7.55;;;4.22;;
59263;SDS011;45030;42.720;23.344;2022-09-01T10:11:58;5.03;;;3.53;;
59263;SDS011;45030;42.720;23.344;2022-09-01T10:14:30;5.85;;;4.50;;
59263;SDS011;45030;42.720;23.344;2022-09-01T10:17:00;5.15;;;4.10;;
59263;SDS011;45030;42.720;23.344;2022-09-01T10:19:26;7.93;;;3.95;;
59263;SDS011;45030;42.720;23.344;2022-09-01T10:21:52;6.10;;;4.30;;
59263;SDS011;45030;42.720;23.344;2022-09-01T10:26:56;5.80;;;3.42;;
59263;SDS011;45030;42.720;23.344;2022-09-01T10:29:24;6.75;;;4.05;;
59263;SDS011;45030;42.720;23.344;2022-09-01T10:31:52;5.10;;;4.55;;
59263;SDS011;45030;42.720;23.344;2022-09-01T10:34:18;6.18;;;3.88;;
59263;SDS011;45030;42.720;23.344;2022-09-01T10:36:45;5.40;;;4.10;;
59263;SDS011;45030;42.720;23.344;2022-09-01T10:39:14;7.57;;;4.57;;
59263;SDS011;45030;42.720;23.344;2022-09-01T10:44:09;7.72;;;4.03;;
59263;SDS011;45030;42.720;23.344;2022-09-01T10:48:59;7.00;;;3.90;;
59263;SDS011;45030;42.720;23.344;2022-09-01T10:53:51;7.17;;;4.33;;
59263;SDS011;45030;42.720;23.344;2022-09-01T10:56:34;5.75;;;4.30;;
59263;SDS011;45030;42.720;23.344;2022-09-01T11:04:04;5.68;;;3.80;;
59263;SDS011;45030;42.720;23.344;2022-09-01T11:11:46;8.30;;;4.35;;
59263;SDS011;45030;42.720;23.344;2022-09-01T11:14:22;5.60;;;4.50;;
59263;SDS011;45030;42.720;23.344;2022-09-01T11:19:40;6.57;;;4.47;;
59263;SDS011;45030;42.720;23.344;2022-09-01T11:22:09;4.78;;;3.63;;
59263;SDS011;45030;42.720;23.344;2022-09-01T11:27:04;4.93;;;3.88;;
59263;SDS011;45030;42.720;23.344;2022-09-01T11:32:14;4.53;;;3.55;;
59263;SDS011;45030;42.720;23.344;2022-09-01T11:34:40;5.10;;;3.83;;
59263;SDS011;45030;42.720;23.344;2022-09-01T11:37:10;5.93;;;3.60;;
59263;SDS011;45030;42.720;23.344;2022-09-01T11:39:40;6.35;;;4.28;;
59263;SDS011;45030;42.720;23.344;2022-09-01T11:47:07;5.38;;;4.53;;
59263;SDS011;45030;42.720;23.344;2022-09-01T11:49:35;5.70;;;4.18;;
59263;SDS011;45030;42.720;23.344;2022-09-01T11:52:01;5.45;;;3.72;;
59263;SDS011;45030;42.720;23.344;2022-09-01T11:54:36;5.35;;;4.10;;
59263;SDS011;45030;42.720;23.344;2022-09-01T11:59:43;6.10;;;4.47;;
59263;SDS011;45030;42.720;23.344;2022-09-01T12:02:09;6.20;;;4.20;;
59263;SDS011;45030;42.720;23.344;2022-09-01T12:04:41;6.38;;;4.45;;
59263;SDS011;45030;42.720;23.344;2022-09-01T12:07:07;4.13;;;3.72;;
59263;SDS011;45030;42.720;23.344;2022-09-01T12:11:59;4.40;;;3.50;;
59263;SDS011;45030;42.720;23.344;2022-09-01T12:14:25;5.72;;;3.88;;
59263;SDS011;45030;42.720;23.344;2022-09-01T12:17:03;6.47;;;3.87;;
59263;SDS011;45030;42.720;23.344;2022-09-01T12:19:33;5.13;;;4.03;;
59263;SDS011;45030;42.720;23.344;2022-09-01T12:22:03;5.35;;;3.85;;
59263;SDS011;45030;42.720;23.344;2022-09-01T12:24:31;4.97;;;3.90;;
59263;SDS011;45030;42.720;23.344;2022-09-01T12:26:58;5.43;;;4.40;;
59263;SDS011;45030;42.720;23.344;2022-09-01T12:29:23;6.63;;;4.07;;
59263;SDS011;45030;42.720;23.344;2022-09-01T12:31:49;6.60;;;4.97;;
59263;SDS011;45030;42.720;23.344;2022-09-01T12:39:38;7.30;;;4.73;;
59263;SDS011;45030;42.720;23.344;2022-09-01T12:46:59;8.68;;;5.95;;
59263;SDS011;45030;42.720;23.344;2022-09-01T12:49:32;6.72;;;4.45;;
59263;SDS011;45030;42.720;23.344;2022-09-01T12:57:33;7.22;;;5.65;;
59263;SDS011;45030;42.720;23.344;2022-09-01T13:00:06;6.13;;;4.78;;
59263;SDS011;45030;42.720;23.344;2022-09-01T13:02:34;6.78;;;5.35;;
59263;SDS011;45030;42.720;23.344;2022-09-01T13:05:34;8.60;;;5.00;;
59263;SDS011;45030;42.720;23.344;2022-09-01T13:07:57;5.75;;;4.68;;
59263;SDS011;45030;42.720;23.344;2022-09-01T13:10:23;7.60;;;4.70;;
59263;SDS011;45030;42.720;23.344;2022-09-01T13:12:49;8.52;;;5.35;;
59263;SDS011;45030;42.720;23.344;2022-09-01T13:15:15;6.50;;;4.15;;
59263;SDS011;45030;42.720;23.344;2022-09-01T13:17:40;7.78;;;4.97;;
59263;SDS011;45030;42.720;23.344;2022-09-01T13:20:06;8.23;;;5.25;;
59263;SDS011;45030;42.720;23.344;2022-09-01T13:22:31;7.05;;;4.93;;
59263;SDS011;45030;42.720;23.344;2022-09-01T13:24:57;8.27;;;5.68;;
59263;SDS011;45030;42.720;23.344;2022-09-01T13:27:22;9.52;;;4.93;;
59263;SDS011;45030;42.720;23.344;2022-09-01T13:29:48;8.17;;;4.43;;
59263;SDS011;45030;42.720;23.344;2022-09-01T13:32:14;7.45;;;4.63;;
59263;SDS011;45030;42.720;23.344;2022-09-01T13:34:40;7.50;;;4.78;;
59263;SDS011;45030;42.720;23.344;2022-09-01T13:37:05;5.30;;;4.00;;
59263;SDS011;45030;42.720;23.344;2022-09-01T13:39:30;6.63;;;4.30;;
59263;SDS011;45030;42.720;23.344;2022-09-01T13:41:56;6.18;;;4.15;;
59263;SDS011;45030;42.720;23.344;2022-09-01T13:44:21;4.95;;;3.95;;
59263;SDS011;45030;42.720;23.344;2022-09-01T13:46:46;4.83;;;4.07;;
59263;SDS011;45030;42.720;23.344;2022-09-01T13:49:12;6.90;;;4.10;;
59263;SDS011;45030;42.720;23.344;2022-09-01T13:51:38;4.68;;;3.90;;
59263;SDS011;45030;42.720;23.344;2022-09-01T13:54:04;6.95;;;4.60;;
59263;SDS011;45030;42.720;23.344;2022-09-01T13:56:29;7.80;;;5.23;;
59263;SDS011;45030;42.720;23.344;2022-09-01T13:58:54;7.80;;;4.70;;
59263;SDS011;45030;42.720;23.344;2022-09-01T14:01:20;5.80;;;4.65;;
59263;SDS011;45030;42.720;23.344;2022-09-01T14:03:47;9.55;;;4.63;;
59263;SDS011;45030;42.720;23.344;2022-09-01T14:06:12;7.25;;;4.88;;
59263;SDS011;45030;42.720;23.344;2022-09-01T14:08:38;5.15;;;4.05;;
59263;SDS011;45030;42.720;23.344;2022-09-01T14:11:03;6.85;;;4.50;;
59263;SDS011;45030;42.720;23.344;2022-09-01T14:13:28;7.45;;;4.55;;
59263;SDS011;45030;42.720;23.344;2022-09-01T14:15:55;7.60;;;5.50;;
59263;SDS011;45030;42.720;23.344;2022-09-01T14:18:20;9.30;;;5.45;;
59263;SDS011;45030;42.720;23.344;2022-09-01T14:20:47;8.52;;;5.78;;
59263;SDS011;45030;42.720;23.344;2022-09-01T14:23:14;9.60;;;5.55;;
59263;SDS011;45030;42.720;23.344;2022-09-01T14:25:44;8.85;;;6.10;;
59263;SDS011;45030;42.720;23.344;2022-09-01T14:28:09;6.70;;;5.03;;
59263;SDS011;45030;42.720;23.344;2022-09-01T14:30:35;7.38;;;5.32;;
59263;SDS011;45030;42.720;23.344;2022-09-01T14:33:01;8.27;;;6.00;;
59263;SDS011;45030;42.720;23.344;2022-09-01T14:35:28;8.65;;;5.60;;
59263;SDS011;45030;42.720;23.344;2022-09-01T14:37:57;10.73;;;6.20;;
59263;SDS011;45030;42.720;23.344;2022-09-01T14:40:23;9.52;;;6.00;;
59263;SDS011;45030;42.720;23.344;2022-09-01T14:42:49;7.55;;;5.70;;
59263;SDS011;45030;42.720;23.344;2022-09-01T14:45:17;9.13;;;6.80;;
59263;SDS011;45030;42.720;23.344;2022-09-01T14:47:43;8.07;;;5.90;;
59263;SDS011;45030;42.720;23.344;2022-09-01T14:50:08;8.95;;;6.18;;
59263;SDS011;45030;42.720;23.344;2022-09-01T14:52:34;11.00;;;6.57;;
59263;SDS011;45030;42.720;23.344;2022-09-01T14:55:01;9.00;;;6.80;;
59263;SDS011;45030;42.720;23.344;2022-09-01T14:57:26;10.43;;;6.82;;
59263;SDS011;45030;42.720;23.344;2022-09-01T14:59:51;8.05;;;6.13;;
59263;SDS011;45030;42.720;23.344;2022-09-01T15:02:16;8.95;;;6.53;;
59263;SDS011;45030;42.720;23.344;2022-09-01T15:04:42;9.68;;;6.35;;
59263;SDS011;45030;42.720;23.344;2022-09-01T15:07:07;8.07;;;6.25;;
59263;SDS011;45030;42.720;23.344;2022-09-01T15:09:33;9.73;;;6.95;;
59263;SDS011;45030;42.720;23.344;2022-09-01T15:11:58;8.10;;;6.22;;
59263;SDS011;45030;42.720;23.344;2022-09-01T15:14:24;8.65;;;5.05;;
59263;SDS011;45030;42.720;23.344;2022-09-01T15:16:49;9.73;;;5.05;;
59263;SDS011;45030;42.720;23.344;2022-09-01T15:19:15;8.35;;;4.78;;
59263;SDS011;45030;42.720;23.344;2022-09-01T15:21:41;7.65;;;4.70;;
59263;SDS011;45030;42.720;23.344;2022-09-01T15:24:07;8.27;;;5.32;;
59263;SDS011;45030;42.720;23.344;2022-09-01T15:26:32;5.40;;;4.35;;
59263;SDS011;45030;42.720;23.344;2022-09-01T15:28:57;8.95;;;5.63;;
59263;SDS011;45030;42.720;23.344;2022-09-01T15:31:24;8.55;;;5.57;;
59263;SDS011;45030;42.720;23.344;2022-09-01T15:33:53;9.82;;;4.93;;
59263;SDS011;45030;42.720;23.344;2022-09-01T15:36:19;6.88;;;5.03;;
59263;SDS011;45030;42.720;23.344;2022-09-01T15:38:45;9.48;;;6.32;;
59263;SDS011;45030;42.720;23.344;2022-09-01T15:41:17;7.75;;;5.32;;
59263;SDS011;45030;42.720;23.344;2022-09-01T15:43:42;8.43;;;4.33;;
59263;SDS011;45030;42.720;23.344;2022-09-01T15:46:08;6.68;;;4.72;;
59263;SDS011;45030;42.720;23.344;2022-09-01T15:48:33;7.57;;;5.00;;
59263;SDS011;45030;42.720;23.344;2022-09-01T15:51:26;8.57;;;5.63;;
59263;SDS011;45030;42.720;23.344;2022-09-01T15:53:52;6.63;;;5.15;;
59263;SDS011;45030;42.720;23.344;2022-09-01T15:56:17;7.45;;;5.03;;
59263;SDS011;45030;42.720;23.344;2022-09-01T15:58:43;6.20;;;4.75;;